Terminal Aerodrome Forecast
Issued by NWS

Home | Current Version | Previous Version | Text Only | Print | Product List | Glossary Off
Versions: 1 2 3 4 5 6 7 8 9 10 11 12 13 14 15 16 17

000
FTUS43 KIWX 210800 AAA
TAFSBN
TAF AMD
KSBN 210807Z 2108/2206 26013KT P6SM BKN100
     FM211000 27015G20KT P6SM SCT025
     FM211500 31015G23KT P6SM BKN040=

USA.gov is the U.S. government's official web portal to all federal, state and local government web resources and services.